| time (UTC) | temp F | wind direction | speed MPH | gust MPH | rain 1hr in | rain 24hr in | rain mn in | humidity % | barometer mb |
| 20260906171430 | 74 | 132 | 5.0 | 6.0 | 0.00 | 0.00 | 0.00 | 77 | 1022.8 |
| 20260906170431 | 73 | 109 | 4.0 | 7.0 | 0.00 | 0.00 | 0.00 | 76 | 1022.8 |
| 20260906165431 | 73 | 110 | 7.0 | 9.0 | 0.00 | 0.00 | 0.00 | 77 | 1022.9 |
| 20260906164429 | 73 | 115 | 5.0 | 7.0 | 0.00 | 0.00 | 0.00 | 78 | 1022.7 |
| 20260906163430 | 72 | 121 | 6.0 | 8.0 | 0.00 | 0.00 | 0.00 | 79 | 1022.9 |
| 20260906162447 | 72 | 139 | 6.0 | 9.0 | 0.00 | 0.00 | 0.00 | 81 | 1023.0 |
| 20260906161531 | 72 | 108 | 6.0 | 9.0 | 0.00 | 0.00 | 0.00 | 81 | 1022.7 |
| 20260906154631 | 71 | 132 | 6.0 | 9.0 | 0.00 | 0.00 | 0.00 | 82 | 1023.2 |
| 20260906153730 | 71 | 131 | 3.0 | 7.0 | 0.00 | 0.00 | 0.00 | 84 | 1023.1 |
| 20260906152729 | 71 | 104 | 3.0 | 5.0 | 0.00 | 0.00 | 0.00 | 83 | 1023.2 |
| 20260906151729 | 70 | 199 | 2.0 | 4.0 | 0.00 | 0.00 | 0.00 | 86 | 1023.2 |
| 20260906150729 | 70 | 122 | 4.0 | 5.0 | 0.00 | 0.00 | 0.00 | 87 | 1023.1 |
| 20260906145729 | 69 | 143 | 2.0 | 6.0 | 0.00 | 0.00 | 0.00 | 89 | 1023.1 |
| 20260906144731 | 68 | 128 | 3.0 | 4.0 | 0.00 | 0.00 | 0.00 | 90 | 1022.9 |
| 20260906144629 | 68 | 110 | 3.0 | 5.0 | 0.00 | 0.00 | 0.00 | 90 | 1023.0 |
| 20260906143629 | 68 | 105 | 5.0 | 7.0 | 0.00 | 0.00 | 0.00 | 91 | 1022.9 |
| 20260906142631 | 68 | 111 | 5.0 | 6.0 | 0.00 | 0.00 | 0.00 | 93 | 1022.7 |
| 20260906141730 | 68 | 97 | 1.0 | 2.0 | 0.00 | 0.00 | 0.00 | 95 | 1022.5 |
| 20260906135731 | 67 | 30 | 2.0 | 5.0 | 0.00 | 0.00 | 0.00 | 99 | 1022.5 |
| 20260906134729 | 66 | 152 | 0.0 | 0.0 | 0.00 | 0.00 | 0.00 | 99 | 1022.6 |
| 20260906133729 | 66 | 135 | 0.0 | 1.0 | 0.00 | 0.00 | 0.00 | 100 | 1022.9 |
| 20260906131831 | 66 | 155 | 2.0 | 4.0 | 0.00 | 0.00 | 0.00 | 100 | 1023.0 |
| 20260906130829 | 66 | 95 | 2.0 | 4.0 | 0.00 | 0.00 | 0.00 | 100 | 1023.2 |
| 20260906125928 | 66 | 101 | 1.0 | 3.0 | 0.00 | 0.00 | 0.00 | 99 | 1023.2 |
| 20260906124931 | 66 | 112 | 2.0 | 3.0 | 0.00 | 0.00 | 0.00 | 100 | 1022.9 |
| 20260906123930 | 66 | 93 | 2.0 | 4.0 | 0.00 | 0.00 | 0.00 | 100 | 1023.0 |
| 20260906121930 | 66 | 142 | 0.0 | 1.0 | 0.00 | 0.00 | 0.00 | 100 | 1022.6 |
| 20260906120929 | 66 | 45 | 0.0 | 0.0 | 0.00 | 0.00 | 0.00 | 99 | 1022.6 |
| 20260906115933 | 66 | 45 | 0.0 | 0.0 | 0.00 | 0.00 | 0.00 | 99 | 1022.3 |
| 20260906115030 | 66 | 315 | 0.0 | 0.0 | 0.00 | 0.00 | 0.00 | 100 | 1022.3 |
| 20260906114029 | 65 | 315 | 0.0 | 0.0 | 0.00 | 0.00 | 0.00 | 99 | 1022.1 |
| 20260906113128 | 65 | 315 | 0.0 | 0.0 | 0.00 | 0.00 | 0.00 | 99 | 1021.9 |
| 20260906112128 | 65 | 22 | 0.0 | 0.0 | 0.00 | 0.00 | 0.00 | 99 | 1021.9 |
| 20260906111130 | 65 | 22 | 0.0 | 0.0 | 0.00 | 0.00 | 0.00 | 99 | 1021.7 |
| 20260906110128 | 65 | 22 | 0.0 | 0.0 | 0.00 | 0.00 | 0.00 | 100 | 1021.7 |
| 20260906105129 | 65 | 22 | 0.0 | 0.0 | 0.00 | 0.00 | 0.00 | 100 | 1021.8 |
| 20260906104130 | 65 | 22 | 0.0 | 0.0 | 0.00 | 0.00 | 0.00 | 99 | 1021.8 |
| 20260906103230 | 65 | 22 | 0.0 | 0.0 | 0.00 | 0.00 | 0.00 | 100 | 1021.8 |
| 20260906102328 | 65 | 22 | 0.0 | 0.0 | 0.00 | 0.00 | 0.00 | 100 | 1021.7 |
| 20260906101330 | 66 | 22 | 0.0 | 0.0 | 0.00 | 0.00 | 0.00 | 99 | 1021.5 |
| 20260906100329 | 65 | 320 | 1.0 | 2.0 | 0.00 | 0.00 | 0.00 | 99 | 1021.2 |
| 20260906095328 | 65 | 315 | 0.0 | 0.0 | 0.00 | 0.00 | 0.00 | 100 | 1021.2 |
| 20260906094329 | 65 | 315 | 0.0 | 0.0 | 0.00 | 0.00 | 0.00 | 100 | 1021.1 |
| 20260906092330 | 64 | 315 | 0.0 | 0.0 | 0.00 | 0.00 | 0.00 | 100 | 1020.8 |
| 20260906090329 | 64 | 315 | 0.0 | 0.0 | 0.00 | 0.00 | 0.00 | 100 | 1021.0 |
| 20260906085329 | 64 | 315 | 0.0 | 0.0 | 0.00 | 0.00 | 0.00 | 100 | 1021.1 |
| 20260906084428 | 64 | 315 | 0.0 | 0.0 | 0.00 | 0.00 | 0.00 | 100 | 1021.0 |
| 20260906083428 | 64 | 315 | 0.0 | 0.0 | 0.00 | 0.00 | 0.00 | 100 | 1021.2 |
| 20260906082432 | 64 | 315 | 0.0 | 0.0 | 0.00 | 0.00 | 0.00 | 100 | 1021.2 |
| 20260906081529 | 64 | 315 | 0.0 | 0.0 | 0.00 | 0.00 | 0.00 | 100 | 1021.3 |
| 20260906080531 | 64 | 315 | 0.0 | 0.0 | 0.00 | 0.00 | 0.00 | 100 | 1021.0 |
| 20260906075628 | 64 | 315 | 0.0 | 0.0 | 0.00 | 0.00 | 0.00 | 100 | 1021.0 |
| 20260906074630 | 65 | 315 | 0.0 | 0.0 | 0.00 | 0.00 | 0.00 | 100 | 1021.3 |
| 20260906073628 | 65 | 315 | 0.0 | 0.0 | 0.00 | 0.00 | 0.00 | 100 | 1021.3 |
| 20260906072628 | 64 | 315 | 0.0 | 0.0 | 0.00 | 0.00 | 0.00 | 99 | 1021.3 |
| 20260906071644 | 64 | 315 | 0.0 | 0.0 | 0.00 | 0.00 | 0.00 | 99 | 1021.5 |
| 20260906070631 | 64 | 315 | 0.0 | 0.0 | 0.00 | 0.00 | 0.00 | 99 | 1021.5 |
| 20260906065630 | 64 | 315 | 0.0 | 0.0 | 0.00 | 0.00 | 0.00 | 98 | 1021.6 |
| 20260906064728 | 64 | 315 | 0.0 | 0.0 | 0.00 | 0.00 | 0.00 | 99 | 1021.7 |
| 20260906062828 | 64 | 315 | 0.0 | 0.0 | 0.00 | 0.00 | 0.00 | 99 | 1021.7 |
| 20260906061831 | 64 | 315 | 0.0 | 0.0 | 0.00 | 0.00 | 0.00 | 99 | 1021.7 |
| 20260906060830 | 64 | 315 | 0.0 | 0.0 | 0.00 | 0.00 | 0.00 | 99 | 1021.6 |
| 20260906055929 | 64 | 315 | 0.0 | 0.0 | 0.00 | 0.00 | 0.00 | 99 | 1021.6 |
| 20260906053930 | 65 | 315 | 0.0 | 0.0 | 0.00 | 0.00 | 0.00 | 99 | 1021.6 |
| 20260906052930 | 65 | 315 | 0.0 | 0.0 | 0.00 | 0.00 | 0.00 | 98 | 1021.6 |
| 20260906051928 | 65 | 315 | 0.0 | 1.0 | 0.00 | 0.00 | 0.00 | 99 | 1021.5 |
| 20260906050930 | 65 | 315 | 0.0 | 0.0 | 0.00 | 0.00 | 0.00 | 99 | 1021.4 |
| 20260906045929 | 65 | 315 | 0.0 | 0.0 | 0.00 | 0.00 | 0.00 | 99 | 1021.3 |
| 20260906044028 | 65 | 315 | 0.0 | 0.0 | 0.00 | 0.00 | 0.00 | 99 | 1021.3 |
| 20260906043030 | 66 | 315 | 0.0 | 0.0 | 0.00 | 0.00 | 0.00 | 98 | 1021.4 |
| 20260906042030 | 66 | 315 | 0.0 | 0.0 | 0.00 | 0.00 | 0.00 | 99 | 1021.5 |
| 20260906041029 | 67 | 315 | 0.0 | 0.0 | 0.00 | 0.00 | 0.00 | 98 | 1021.6 |
| 20260906040028 | 67 | 315 | 2.0 | 2.0 | 0.00 | 0.00 | 0.00 | 97 | 1021.5 |
| 20260906035029 | 67 | 315 | 0.0 | 0.0 | 0.00 | 0.00 | 0.00 | 97 | 1021.4 |
| 20260906034127 | 67 | 315 | 0.0 | 0.0 | 0.00 | 0.00 | 0.00 | 98 | 1021.2 |
| 20260906033144 | 67 | 315 | 0.0 | 0.0 | 0.00 | 0.00 | 0.00 | 98 | 1021.1 |
| 20260906032228 | 67 | 315 | 0.0 | 0.0 | 0.00 | 0.00 | 0.00 | 97 | 1020.9 |
| 20260906031229 | 67 | 315 | 0.0 | 0.0 | 0.00 | 0.00 | 0.00 | 98 | 1020.7 |
| 20260906030228 | 67 | 315 | 0.0 | 0.0 | 0.00 | 0.00 | 0.00 | 98 | 1020.6 |
| 20260906022247 | 67 | 315 | 0.0 | 0.0 | 0.00 | 0.00 | 0.00 | 96 | 1020.1 |
| 20260906021230 | 68 | 315 | 0.0 | 0.0 | 0.00 | 0.00 | 0.00 | 97 | 1020.1 |
| 20260906020327 | 67 | 315 | 0.0 | 1.0 | 0.00 | 0.00 | 0.00 | 95 | 1020.0 |
| 20260906015328 | 67 | 315 | 0.0 | 0.0 | 0.00 | 0.00 | 0.00 | 96 | 1019.8 |
| 20260906014346 | 68 | 315 | 0.0 | 0.0 | 0.00 | 0.00 | 0.00 | 94 | 1019.4 |
| 20260906013430 | 68 | 315 | 0.0 | 0.0 | 0.00 | 0.00 | 0.00 | 94 | 1019.2 |
| 20260906012429 | 68 | 315 | 0.0 | 0.0 | 0.00 | 0.00 | 0.00 | 94 | 1018.9 |
| 20260906011429 | 69 | 315 | 0.0 | 0.0 | 0.00 | 0.00 | 0.00 | 93 | 1018.8 |
| 20260906005530 | 70 | 315 | 0.0 | 2.0 | 0.00 | 0.00 | 0.00 | 93 | 1018.5 |
| 20260906004627 | 71 | 315 | 1.0 | 2.0 | 0.00 | 0.00 | 0.00 | 92 | 1018.5 |
| 20260906002630 | 72 | 315 | 2.0 | 2.0 | 0.00 | 0.00 | 0.00 | 90 | 1018.5 |
| 20260906001628 | 72 | 315 | 0.0 | 0.0 | 0.00 | 0.00 | 0.00 | 88 | 1018.3 |
| 20260905235527 | 74 | 67 | 0.0 | 0.0 | 0.00 | 0.00 | 0.00 | 86 | 1018.2 |
| 20260905233529 | 75 | 250 | 1.0 | 3.0 | 0.00 | 0.00 | 0.00 | 83 | 1018.3 |
| 20260905232529 | 76 | 247 | 0.0 | 1.0 | 0.00 | 0.00 | 0.00 | 79 | 1018.6 |
| 20260905231627 | 76 | 102 | 3.0 | 4.0 | 0.00 | 0.00 | 0.00 | 78 | 1018.5 |
| 20260905230628 | 76 | 87 | 3.0 | 7.0 | 0.00 | 0.00 | 0.00 | 78 | 1018.6 |
| 20260905225728 | 76 | 106 | 3.0 | 6.0 | 0.00 | 0.00 | 0.00 | 78 | 1018.6 |
| 20260905224729 | 76 | 105 | 5.0 | 8.0 | 0.00 | 0.00 | 0.00 | 78 | 1018.6 |
| 20260905223730 | 77 | 99 | 4.0 | 6.0 | 0.00 | 0.00 | 0.00 | 77 | 1018.8 |
| 20260905222729 | 77 | 99 | 6.0 | 9.0 | 0.00 | 0.00 | 0.00 | 78 | 1018.8 |
| 20260905221744 | 77 | 106 | 5.0 | 8.0 | 0.00 | 0.00 | 0.00 | 77 | 1018.6 |
| 20260905220729 | 77 | 99 | 4.0 | 7.0 | 0.00 | 0.00 | 0.00 | 77 | 1018.6 |
| 20260905215730 | 77 | 105 | 4.0 | 7.0 | 0.00 | 0.00 | 0.00 | 78 | 1018.7 |
| 20260905214828 | 77 | 101 | 6.0 | 10.0 | 0.00 | 0.00 | 0.00 | 78 | 1018.7 |
| 20260905213928 | 77 | 107 | 4.0 | 7.0 | 0.00 | 0.00 | 0.00 | 78 | 1019.0 |
| 20260905212929 | 77 | 85 | 4.0 | 7.0 | 0.00 | 0.00 | 0.00 | 78 | 1019.1 |
| 20260905211929 | 77 | 97 | 5.0 | 7.0 | 0.00 | 0.00 | 0.00 | 76 | 1019.2 |
| 20260905210946 | 79 | 124 | 3.0 | 7.0 | 0.00 | 0.00 | 0.00 | 76 | 1019.2 |
| 20260905205944 | 79 | 108 | 6.0 | 8.0 | 0.00 | 0.00 | 0.00 | 73 | 1019.1 |
| 20260905204029 | 81 | 95 | 4.0 | 7.0 | 0.00 | 0.00 | 0.00 | 73 | 1019.0 |
| 20260905203127 | 81 | 105 | 4.0 | 7.0 | 0.00 | 0.00 | 0.00 | 73 | 1019.0 |
| 20260905201127 | 80 | 101 | 2.0 | 3.0 | 0.00 | 0.00 | 0.00 | 75 | 1019.1 |
| 20260905200129 | 80 | 90 | 2.0 | 4.0 | 0.00 | 0.00 | 0.00 | 75 | 1019.3 |
| 20260905194128 | 81 | 126 | 4.0 | 6.0 | 0.00 | 0.00 | 0.00 | 72 | 1019.2 |
| 20260905193129 | 80 | 105 | 4.0 | 6.0 | 0.00 | 0.00 | 0.00 | 73 | 1019.2 |
| 20260905191227 | 82 | 134 | 2.0 | 4.0 | 0.00 | 0.00 | 0.00 | 72 | 1019.4 |
| 20260905190227 | 80 | 135 | 1.0 | 2.0 | 0.00 | 0.00 | 0.00 | 74 | 1019.5 |
| 20260905185228 | 81 | 112 | 2.0 | 4.0 | 0.00 | 0.00 | 0.00 | 72 | 1019.5 |
| 20260905183227 | 81 | 202 | 1.0 | 3.0 | 0.00 | 0.00 | 0.00 | 74 | 1019.3 |
| 20260905182228 | 80 | 137 | 3.0 | 5.0 | 0.00 | 0.00 | 0.00 | 77 | 1019.4 |
| 20260905180329 | 78 | 91 | 4.0 | 6.0 | 0.00 | 0.00 | 0.00 | 78 | 1019.5 |
| 20260905175328 | 78 | 142 | 2.0 | 4.0 | 0.00 | 0.00 | 0.00 | 78 | 1019.6 |
| 20260905173329 | 78 | 112 | 0.0 | 1.0 | 0.00 | 0.00 | 0.00 | 81 | 1019.8 |
| 20260905172328 | 78 | 135 | 3.0 | 4.0 | 0.00 | 0.00 | 0.00 | 81 | 1019.9 |